Carman, Canada
Current Conditions -  °F | °C
As of 8:00 PM on Thursday 20 Nov 2014 (Local Time) from CYPG Reporting Station
Broken Clouds Broken Clouds  
Wind Chill: -2°   Ceiling: 22000
Heat Index: 12°   Visibility: 15mi
Dew Point:   Wind: 12mph
Humidity: 73%   Direction: 150°SSE
Pressure: 29.99"   Gusts: NA
Location:  49.51°N, 98°W
Report Text: CYPG 210200Z 15010KT 15SM SCT160 BKN220 M11/M15 A2999 RMKAC3CI1 SLP180
Loading
Personal Weather Stations






























Interactive Weather Map New forecast layout! Learn more

10-Day Weather Forecast

Advertisements
Track Severe Weather on mobile